Terminal Aerodrome Forecast
Issued by NWS

Home | Current Version | Previous Version | Text Only | Print | Product List | Glossary Off
Versions: 1 2 3 4 5 6 7 8 9 10 11 12 13

000
FTUS45 KGGW 300221 AAA
TAFSDY
TAF AMD
KSDY 300221Z 3002/3024 VRB04KT 4SM FU SCT150
     FM300900 VRB03KT P6SM VCSH BKN100
     FM301200 VRB05KT P6SM SCT100
     FM301500 27009KT 6SM FU SCT120
      AMD LTD TO CLD VIS AND WIND=

USA.gov is the U.S. government's official web portal to all federal, state and local government web resources and services.